createdAt,value
2024-05-09T00:01:20.072Z,82.52
2024-05-09T00:03:51.980Z,82.71
2024-05-09T00:06:26.999Z,82.80
2024-05-09T00:08:58.459Z,82.85
2024-05-09T00:11:30.156Z,82.50
2024-05-09T00:14:01.759Z,82.62
2024-05-09T00:16:33.216Z,82.57
2024-05-09T00:19:05.024Z,82.87
2024-05-09T00:21:44.569Z,83.18
2024-05-09T00:24:16.133Z,83.21
2024-05-09T00:26:47.598Z,83.45
2024-05-09T00:29:19.228Z,83.52
2024-05-09T00:31:50.871Z,83.75
2024-05-09T00:34:22.780Z,83.74
2024-05-09T00:36:57.500Z,83.65
2024-05-09T00:39:29.316Z,83.85
2024-05-09T00:42:01.380Z,83.63
2024-05-09T00:44:32.990Z,83.66
2024-05-09T00:47:04.605Z,83.36
2024-05-09T00:49:36.593Z,82.86
2024-05-09T00:52:12.710Z,82.66
2024-05-09T00:54:44.319Z,82.16
2024-05-09T00:57:15.278Z,82.37
2024-05-09T00:59:46.394Z,81.47
2024-05-09T01:02:18.573Z,81.35
2024-05-09T01:04:49.874Z,81.31
2024-05-09T01:07:24.616Z,81.54
2024-05-09T01:09:57.197Z,81.61
2024-05-09T01:12:28.020Z,81.71
2024-05-09T01:14:58.308Z,81.81
2024-05-09T01:17:30.469Z,81.67
2024-05-09T01:20:02.714Z,80.95
2024-05-09T01:22:39.472Z,80.80
2024-05-09T01:25:14.503Z,80.59
2024-05-09T01:27:46.163Z,80.41
2024-05-09T01:30:24.274Z,80.61
2024-05-09T01:32:59.450Z,80.59
2024-05-09T01:35:31.216Z,80.26
2024-05-09T01:38:02.968Z,80.41
2024-05-09T01:40:39.998Z,80.72
2024-05-09T01:43:12.407Z,81.33
2024-05-09T01:45:44.387Z,81.03
2024-05-09T01:48:16.266Z,81.13
2024-05-09T01:50:48.011Z,81.13
2024-05-09T01:53:19.742Z,79.88
2024-05-09T01:55:54.487Z,79.70
2024-05-09T01:58:25.511Z,79.51
2024-05-09T02:00:56.713Z,79.50
2024-05-09T02:03:27.769Z,79.50
2024-05-09T02:05:58.880Z,78.98
2024-05-09T02:08:30.243Z,79.82
2024-05-09T02:11:04.658Z,78.31
2024-05-09T02:13:35.687Z,77.26
2024-05-09T02:16:07.062Z,76.47
2024-05-09T02:18:38.110Z,76.37
2024-05-09T02:21:09.258Z,77.13
2024-05-09T02:23:40.263Z,77.71
2024-05-09T02:26:14.344Z,76.17
2024-05-09T02:28:45.523Z,75.74
2024-05-09T02:31:16.571Z,75.45
2024-05-09T02:33:47.832Z,75.34
2024-05-09T02:36:19.008Z,75.06
2024-05-09T02:38:49.952Z,74.49
2024-05-09T02:41:23.882Z,75.01
2024-05-09T02:43:54.856Z,74.54
2024-05-09T02:46:25.992Z,73.71
2024-05-09T02:48:57.043Z,72.23
2024-05-09T02:51:28.233Z,71.69
2024-05-09T02:53:59.189Z,71.44
2024-05-09T02:56:33.308Z,71.83
2024-05-09T02:59:04.396Z,72.54
2024-05-09T03:01:35.517Z,72.42
2024-05-09T03:04:07.027Z,72.12
2024-05-09T03:06:42.866Z,70.27
2024-05-09T03:09:14.559Z,70.11
2024-05-09T03:11:49.584Z,69.98
2024-05-09T03:14:22.051Z,68.58
2024-05-09T03:16:53.775Z,68.54
2024-05-09T03:19:25.318Z,68.00
2024-05-09T03:21:56.863Z,67.94
2024-05-09T03:24:28.374Z,67.52
2024-05-09T03:27:03.184Z,67.84
2024-05-09T03:29:34.860Z,68.28
2024-05-09T03:32:07.075Z,67.00
2024-05-09T03:34:40.742Z,66.82
2024-05-09T03:37:12.347Z,66.83
2024-05-09T03:39:44.055Z,66.54
2024-05-09T03:42:18.775Z,66.23
2024-05-09T03:44:50.410Z,66.57
2024-05-09T03:47:22.164Z,65.78
2024-05-09T03:49:57.107Z,64.40
2024-05-09T03:52:31.144Z,62.54
2024-05-09T03:55:02.840Z,62.99
2024-05-09T03:57:37.571Z,62.58
2024-05-09T04:00:17.669Z,63.48
2024-05-09T04:02:54.434Z,64.96
2024-05-09T04:05:27.322Z,65.39
2024-05-09T04:07:58.974Z,65.16
2024-05-09T04:10:34.112Z,67.03
2024-05-09T04:13:09.067Z,67.24
2024-05-09T04:15:40.045Z,67.57
2024-05-09T04:18:11.277Z,68.10
2024-05-09T04:20:42.428Z,68.26
2024-05-09T04:23:14.928Z,68.47
2024-05-09T04:25:46.764Z,68.63
2024-05-09T04:28:21.158Z,68.13
2024-05-09T04:30:52.066Z,68.51
2024-05-09T04:33:23.203Z,68.65
2024-05-09T04:35:54.283Z,68.50
2024-05-09T04:38:25.396Z,68.52
2024-05-09T04:40:56.400Z,69.02
2024-05-09T04:43:30.405Z,69.05
2024-05-09T04:46:01.335Z,69.36
2024-05-09T04:48:32.563Z,69.40
2024-05-09T04:51:04.713Z,69.76
2024-05-09T04:53:35.673Z,69.80
2024-05-09T04:56:07.022Z,68.70
2024-05-09T04:58:41.639Z,68.07
2024-05-09T05:01:13.196Z,67.50
2024-05-09T05:03:45.083Z,66.35
2024-05-09T05:06:18.722Z,65.06
2024-05-09T05:08:50.247Z,65.71
2024-05-09T05:11:21.786Z,64.80
2024-05-09T05:13:55.794Z,63.72
2024-05-09T05:16:27.256Z,63.87
2024-05-09T05:18:58.421Z,63.79
2024-05-09T05:21:29.621Z,64.46
2024-05-09T05:24:00.612Z,64.33
2024-05-09T05:26:31.748Z,64.85
2024-05-09T05:29:07.496Z,64.15
2024-05-09T05:31:38.499Z,63.10
2024-05-09T05:34:09.490Z,63.67
2024-05-09T05:36:40.569Z,63.24
2024-05-09T05:39:11.598Z,62.80
2024-05-09T05:41:42.623Z,63.34
2024-05-09T05:44:17.663Z,62.71
2024-05-09T05:46:48.687Z,61.79
2024-05-09T05:49:19.948Z,62.17
2024-05-09T05:51:51.059Z,62.28
2024-05-09T05:54:21.950Z,62.54
2024-05-09T05:56:52.985Z,62.76
2024-05-09T05:59:30.862Z,62.19
2024-05-09T06:02:02.442Z,62.14
2024-05-09T06:04:34.029Z,61.66
2024-05-09T06:07:05.573Z,61.25
2024-05-09T06:09:37.233Z,62.12
2024-05-09T06:12:09.488Z,60.63
2024-05-09T06:14:44.273Z,59.90
2024-05-09T06:17:16.214Z,60.51
2024-05-09T06:19:48.058Z,60.12
2024-05-09T06:22:19.812Z,59.28
2024-05-09T06:24:51.515Z,59.67
2024-05-09T06:27:23.343Z,60.24
2024-05-09T06:29:58.031Z,60.66
2024-05-09T06:32:29.744Z,59.44
2024-05-09T06:35:06.904Z,58.73
2024-05-09T06:37:38.765Z,58.48
2024-05-09T06:40:12.522Z,58.67
2024-05-09T06:42:46.225Z,59.66
2024-05-09T06:45:20.991Z,58.63
2024-05-09T06:47:52.650Z,58.25
2024-05-09T06:50:28.275Z,58.15
2024-05-09T06:53:03.268Z,57.39
2024-05-09T06:55:34.795Z,58.44
2024-05-09T06:58:07.723Z,59.93
2024-05-09T07:00:42.449Z,60.46
2024-05-09T07:03:16.478Z,59.88
2024-05-09T07:05:49.983Z,60.00
2024-05-09T07:08:21.303Z,60.41
2024-05-09T07:10:52.604Z,58.88
2024-05-09T07:13:23.900Z,58.34
2024-05-09T07:15:57.898Z,58.69
2024-05-09T07:18:29.621Z,58.28
2024-05-09T07:21:00.835Z,59.81
2024-05-09T07:23:31.780Z,59.03
2024-05-09T07:26:02.911Z,59.08
2024-05-09T07:28:33.852Z,59.62
2024-05-09T07:31:08.015Z,58.76
2024-05-09T07:33:38.967Z,59.13
2024-05-09T07:36:10.278Z,60.27
2024-05-09T07:38:41.165Z,61.59
2024-05-09T07:41:12.173Z,61.42
2024-05-09T07:43:43.050Z,61.20
2024-05-09T07:47:14.314Z,60.79
2024-05-09T07:54:16.287Z,61.12
2024-05-09T07:56:47.461Z,61.10
2024-05-09T07:59:18.977Z,60.88
2024-05-09T08:01:53.859Z,61.26
2024-05-09T08:04:26.571Z,61.14
2024-05-09T08:07:01.442Z,61.19
2024-05-09T08:09:33.881Z,61.33
2024-05-09T08:12:06.523Z,62.30
2024-05-09T08:14:38.902Z,62.32
2024-05-09T08:17:14.343Z,62.98
2024-05-09T08:19:45.953Z,62.64
2024-05-09T08:22:18.658Z,62.70
2024-05-09T08:24:50.335Z,63.04
2024-05-09T08:27:21.831Z,63.17
2024-05-09T08:29:53.302Z,62.77
2024-05-09T08:32:29.019Z,63.17
2024-05-09T08:35:00.629Z,62.99
2024-05-09T08:37:36.833Z,62.45
2024-05-09T08:40:16.987Z,62.74
2024-05-09T08:42:56.571Z,62.06
2024-05-09T08:45:29.067Z,61.63
2024-05-09T08:48:07.164Z,62.51
2024-05-09T08:50:42.584Z,62.88
2024-05-09T08:53:14.422Z,63.48
2024-05-09T08:55:49.347Z,63.13
2024-05-09T08:58:21.515Z,62.99
2024-05-09T09:00:53.164Z,63.39
2024-05-09T09:03:30.216Z,63.47
2024-05-09T09:06:03.713Z,62.16
2024-05-09T09:08:35.285Z,63.31
2024-05-09T09:11:07.314Z,63.33
2024-05-09T09:13:38.809Z,63.86
2024-05-09T09:16:10.282Z,63.67
2024-05-09T09:18:51.431Z,63.81
2024-05-09T09:21:22.470Z,64.14
2024-05-09T09:23:53.412Z,63.42
2024-05-09T09:26:25.234Z,63.14
2024-05-09T09:28:56.473Z,64.26
2024-05-09T09:31:27.599Z,64.51
2024-05-09T09:34:06.988Z,64.12
2024-05-09T09:36:38.917Z,64.01
2024-05-09T09:39:13.205Z,64.03
2024-05-09T09:41:46.715Z,64.31
2024-05-09T09:44:18.736Z,63.97
2024-05-09T09:46:49.897Z,64.76
2024-05-09T09:49:24.985Z,64.17
2024-05-09T09:51:56.094Z,64.25
2024-05-09T09:54:27.636Z,64.75
2024-05-09T09:56:58.825Z,65.46
2024-05-09T09:59:32.010Z,63.82
2024-05-09T10:02:03.754Z,64.41
2024-05-09T10:04:39.891Z,65.54
2024-05-09T10:07:12.972Z,65.71
2024-05-09T10:09:44.745Z,65.95
2024-05-09T10:12:17.153Z,65.89
2024-05-09T10:14:50.671Z,67.14
2024-05-09T10:17:22.521Z,66.89
2024-05-09T10:20:14.778Z,66.85
2024-05-09T10:22:53.219Z,67.53
2024-05-09T10:25:25.370Z,67.76
2024-05-09T10:27:58.727Z,66.83
2024-05-09T10:30:35.731Z,67.30
2024-05-09T10:33:13.385Z,67.04
2024-05-09T10:35:54.332Z,68.21
2024-05-09T10:38:25.893Z,67.54
2024-05-09T10:40:59.845Z,67.74
2024-05-09T10:43:31.642Z,67.70
2024-05-09T10:46:03.256Z,67.90
2024-05-09T10:48:34.992Z,67.24
2024-05-09T10:51:09.818Z,67.49
2024-05-09T10:53:44.727Z,67.53
2024-05-09T10:56:17.534Z,67.34
2024-05-09T10:58:49.687Z,67.64
2024-05-09T11:01:20.853Z,67.17
2024-05-09T11:03:54.503Z,67.43
2024-05-09T11:06:28.785Z,67.38
2024-05-09T11:09:00.045Z,66.47
2024-05-09T11:11:31.608Z,66.62
2024-05-09T11:14:02.568Z,66.44
2024-05-09T11:16:34.101Z,67.05
2024-05-09T11:19:05.950Z,67.26
2024-05-09T11:21:40.365Z,67.09
2024-05-09T11:24:11.829Z,67.12
2024-05-09T11:26:42.875Z,67.67
2024-05-09T11:29:15.745Z,67.76
2024-05-09T11:31:51.214Z,69.18
2024-05-09T11:34:22.315Z,69.45
2024-05-09T11:36:56.219Z,69.44
2024-05-09T11:39:27.398Z,69.19
2024-05-09T11:41:58.425Z,69.08
2024-05-09T11:44:29.801Z,69.49
2024-05-09T11:47:00.758Z,69.73
2024-05-09T11:49:31.904Z,69.65
2024-05-09T11:52:06.370Z,69.47
2024-05-09T11:54:37.582Z,69.42
2024-05-09T11:57:11.049Z,68.98
2024-05-09T11:59:42.699Z,69.11
2024-05-09T12:02:14.421Z,63.04
2024-05-09T12:04:46.199Z,61.87
2024-05-09T12:07:21.132Z,60.38
2024-05-09T12:09:55.383Z,60.14
2024-05-09T12:12:26.919Z,60.14
2024-05-09T12:14:58.400Z,60.52
2024-05-09T12:17:30.609Z,61.05
2024-05-09T12:20:04.227Z,61.15
2024-05-09T12:22:39.899Z,61.01
2024-05-09T12:25:11.078Z,61.17
2024-05-09T12:27:42.170Z,61.36
2024-05-09T12:30:20.762Z,61.09
2024-05-09T12:32:59.700Z,61.82
2024-05-09T12:35:33.883Z,61.78
2024-05-09T12:38:08.058Z,61.49
2024-05-09T12:40:39.604Z,61.39
2024-05-09T12:43:11.539Z,60.80
2024-05-09T12:45:43.162Z,61.14
2024-05-09T12:48:15.018Z,60.93
2024-05-09T12:50:46.382Z,61.20
2024-05-09T12:53:20.481Z,62.43
2024-05-09T12:55:56.866Z,63.79
2024-05-09T12:58:31.754Z,64.68
2024-05-09T13:01:03.491Z,65.35
2024-05-09T13:03:35.300Z,65.88
2024-05-09T13:06:07.093Z,65.94
2024-05-09T13:08:41.918Z,66.22
2024-05-09T13:11:13.618Z,66.64
2024-05-09T13:13:45.426Z,67.25
2024-05-09T13:16:17.433Z,67.67
2024-05-09T13:18:49.265Z,67.05
2024-05-09T13:21:20.404Z,67.73
2024-05-09T13:23:55.712Z,67.59
2024-05-09T13:26:28.171Z,67.49
2024-05-09T13:28:59.212Z,67.99
2024-05-09T13:31:30.332Z,67.10
2024-05-09T13:34:01.733Z,67.43
2024-05-09T13:36:32.932Z,66.98
2024-05-09T13:39:09.401Z,66.98
2024-05-09T13:41:40.534Z,66.91
2024-05-09T13:44:11.615Z,67.28
2024-05-09T13:46:42.531Z,66.37
2024-05-09T13:49:18.135Z,66.11
2024-05-09T13:51:49.386Z,66.05
2024-05-09T13:54:23.490Z,65.90
2024-05-09T13:56:54.474Z,66.66
2024-05-09T13:59:26.074Z,67.30
2024-05-09T14:02:00.737Z,67.04
2024-05-09T14:04:32.625Z,67.15
2024-05-09T14:07:04.464Z,68.10
2024-05-09T14:09:39.484Z,67.90
2024-05-09T14:12:11.766Z,68.07
2024-05-09T14:14:43.555Z,68.44
2024-05-09T14:17:15.181Z,68.35
2024-05-09T14:19:46.893Z,68.22
2024-05-09T14:22:18.334Z,67.09
2024-05-09T14:24:52.436Z,65.54
2024-05-09T14:27:24.230Z,65.86
2024-05-09T14:29:55.808Z,65.27
2024-05-09T14:32:27.246Z,65.59
2024-05-09T14:34:58.442Z,65.20
2024-05-09T14:37:29.578Z,64.82
2024-05-09T14:40:06.891Z,63.65
2024-05-09T14:42:38.252Z,63.18
2024-05-09T14:45:09.956Z,63.25
2024-05-09T14:47:41.473Z,62.43
2024-05-09T14:50:23.678Z,62.61
2024-05-09T14:52:59.750Z,62.54
2024-05-09T14:55:39.566Z,61.81
2024-05-09T14:58:12.809Z,62.27
2024-05-09T15:00:50.870Z,62.51
2024-05-09T15:03:23.768Z,62.66
2024-05-09T15:05:58.443Z,62.54
2024-05-09T15:08:33.024Z,62.79
2024-05-09T15:11:07.930Z,62.85
2024-05-09T15:13:39.759Z,63.02
2024-05-09T15:16:11.677Z,63.28
2024-05-09T15:18:44.042Z,63.68
2024-05-09T15:21:15.748Z,63.52
2024-05-09T15:23:47.736Z,63.84
2024-05-09T15:26:22.811Z,63.67
2024-05-09T15:28:54.470Z,63.67
2024-05-09T15:31:26.342Z,63.62
2024-05-09T15:33:58.155Z,63.79
2024-05-09T15:36:30.293Z,63.75
2024-05-09T15:39:01.853Z,63.91
2024-05-09T15:41:36.548Z,64.15
2024-05-09T15:44:08.112Z,64.29
2024-05-09T15:46:39.662Z,64.28
2024-05-09T15:49:11.900Z,64.91
2024-05-09T15:51:43.663Z,65.03
2024-05-09T15:54:15.137Z,64.92
2024-05-09T15:56:52.449Z,65.03
2024-05-09T15:59:23.456Z,65.34
2024-05-09T16:01:54.505Z,64.94
2024-05-09T16:04:25.633Z,65.14
2024-05-09T16:06:56.680Z,65.74
2024-05-09T16:09:27.666Z,65.24
2024-05-09T16:12:01.575Z,65.80
2024-05-09T16:14:32.448Z,65.94
2024-05-09T16:17:03.566Z,65.59
2024-05-09T16:19:34.639Z,65.44
2024-05-09T16:22:06.011Z,65.63
2024-05-09T16:24:37.840Z,65.64
2024-05-09T16:27:12.713Z,65.58
2024-05-09T16:29:44.243Z,66.21
2024-05-09T16:32:15.895Z,65.89
2024-05-09T16:34:47.556Z,66.15
2024-05-09T16:37:19.257Z,66.04
2024-05-09T16:39:50.974Z,66.28
2024-05-09T16:42:26.138Z,66.72
2024-05-09T16:44:57.620Z,66.78
2024-05-09T16:47:29.451Z,66.89
2024-05-09T16:50:01.030Z,67.02
2024-05-09T16:52:32.691Z,67.58
2024-05-09T16:55:04.441Z,67.25
2024-05-09T16:57:38.731Z,67.34
2024-05-09T17:00:18.083Z,67.94
2024-05-09T17:02:56.711Z,68.12
2024-05-09T17:05:30.121Z,68.43
2024-05-09T17:08:01.404Z,69.20
2024-05-09T17:10:34.565Z,68.92
2024-05-09T17:13:09.650Z,69.43
2024-05-09T17:15:40.621Z,69.34
2024-05-09T17:18:11.661Z,69.13
2024-05-09T17:20:42.606Z,69.05
2024-05-09T17:23:17.268Z,68.70
2024-05-09T17:25:50.100Z,68.94
2024-05-09T17:28:24.755Z,69.59
2024-05-09T17:30:56.394Z,69.85
2024-05-09T17:33:27.994Z,69.67
2024-05-09T17:35:59.606Z,69.47
2024-05-09T17:38:31.195Z,70.50
2024-05-09T17:41:02.768Z,71.05
2024-05-09T17:43:37.442Z,71.54
2024-05-09T17:46:09.899Z,71.41
2024-05-09T17:48:41.565Z,71.70
2024-05-09T17:51:13.181Z,71.14
2024-05-09T17:53:44.717Z,71.40
2024-05-09T17:56:16.273Z,71.80
2024-05-09T17:58:50.553Z,71.35
2024-05-09T18:01:21.540Z,71.34
2024-05-09T18:03:52.658Z,72.02
2024-05-09T18:06:23.592Z,71.46
2024-05-09T18:08:54.613Z,71.42
2024-05-09T18:11:25.768Z,71.36
2024-05-09T18:14:00.569Z,71.36
2024-05-09T18:16:31.496Z,72.18
2024-05-09T18:19:02.831Z,72.38
2024-05-09T18:21:34.177Z,72.40
2024-05-09T18:24:05.240Z,71.96
2024-05-09T18:26:38.315Z,72.27
2024-05-09T18:29:13.094Z,72.26
2024-05-09T18:31:45.028Z,72.72
2024-05-09T18:34:16.584Z,72.67
2024-05-09T18:36:49.146Z,72.72
2024-05-09T18:39:21.098Z,73.47
2024-05-09T18:41:52.593Z,73.79
2024-05-09T18:44:28.606Z,73.66
2024-05-09T18:47:00.153Z,74.01
2024-05-09T18:49:31.902Z,74.13
2024-05-09T18:52:03.547Z,74.69
2024-05-09T18:54:35.383Z,74.98
2024-05-09T18:57:06.607Z,75.27
2024-05-09T18:59:40.590Z,75.15
2024-05-09T19:02:11.834Z,75.23
2024-05-09T19:04:43.154Z,75.44
2024-05-09T19:07:15.076Z,75.18
2024-05-09T19:09:49.458Z,74.78
2024-05-09T19:12:20.981Z,74.91
2024-05-09T19:14:55.621Z,74.55
2024-05-09T19:17:27.318Z,74.86
2024-05-09T19:19:58.989Z,74.73
2024-05-09T19:22:30.635Z,75.26
2024-05-09T19:25:02.448Z,74.88
2024-05-09T19:27:34.566Z,74.92
2024-05-09T19:30:17.665Z,75.29
2024-05-09T19:32:57.417Z,75.13
2024-05-09T19:35:29.085Z,75.12
2024-05-09T19:38:00.643Z,75.24
2024-05-09T19:40:34.098Z,75.12
2024-05-09T19:43:07.380Z,75.03
2024-05-09T19:45:42.246Z,74.85
2024-05-09T19:48:14.124Z,75.71
2024-05-09T19:50:48.260Z,75.89
2024-05-09T19:53:21.282Z,75.23
2024-05-09T19:55:53.022Z,75.36
2024-05-09T19:58:24.093Z,75.48
2024-05-09T20:00:58.278Z,75.12
2024-05-09T20:03:29.425Z,75.20
2024-05-09T20:06:00.553Z,74.90
2024-05-09T20:08:31.567Z,74.91
2024-05-09T20:11:02.498Z,75.19
2024-05-09T20:13:33.569Z,75.27
2024-05-09T20:16:08.408Z,76.20
2024-05-09T20:18:39.562Z,75.97
2024-05-09T20:21:10.572Z,75.95
2024-05-09T20:23:41.575Z,76.05
2024-05-09T20:26:12.631Z,76.21
2024-05-09T20:28:46.529Z,76.15
2024-05-09T20:31:23.029Z,76.09
2024-05-09T20:33:55.413Z,76.30
2024-05-09T20:36:26.912Z,76.27
2024-05-09T20:38:58.370Z,76.24
2024-05-09T20:41:33.637Z,76.43
2024-05-09T20:44:06.489Z,76.37
2024-05-09T20:46:41.130Z,77.06
2024-05-09T20:49:12.913Z,76.85
2024-05-09T20:51:44.581Z,76.92
2024-05-09T20:54:18.745Z,76.70
2024-05-09T20:56:50.403Z,76.81
2024-05-09T20:59:21.289Z,77.19
2024-05-09T21:01:55.383Z,76.94
2024-05-09T21:04:26.462Z,77.76
2024-05-09T21:06:57.562Z,77.44
2024-05-09T21:09:29.496Z,77.89
2024-05-09T21:12:00.578Z,77.57
2024-05-09T21:14:31.571Z,77.70
2024-05-09T21:17:05.829Z,78.17
2024-05-09T21:19:36.831Z,77.62
2024-05-09T21:22:07.938Z,78.27
2024-05-09T21:24:39.128Z,77.85
2024-05-09T21:27:10.093Z,78.53
2024-05-09T21:29:42.687Z,78.79
2024-05-09T21:32:16.075Z,78.63
2024-05-09T21:34:47.906Z,78.37
2024-05-09T21:37:19.516Z,78.47
2024-05-09T21:39:51.318Z,78.05
2024-05-09T21:42:22.848Z,77.98
2024-05-09T21:44:56.942Z,78.08
2024-05-09T21:47:31.737Z,78.41
2024-05-09T21:50:03.720Z,78.29
2024-05-09T21:52:36.257Z,77.85
2024-05-09T21:55:08.325Z,77.61
2024-05-09T21:57:39.217Z,77.85
2024-05-09T22:00:28.190Z,78.23
2024-05-09T22:03:10.695Z,78.04
2024-05-09T22:05:45.542Z,79.03
2024-05-09T22:08:16.663Z,78.94
2024-05-09T22:10:47.816Z,78.83
2024-05-09T22:13:20.753Z,79.01
2024-05-09T22:15:51.789Z,78.83
2024-05-09T22:18:25.896Z,78.99
2024-05-09T22:20:56.842Z,78.90
2024-05-09T22:23:27.776Z,79.53
2024-05-09T22:25:58.764Z,80.31
2024-05-09T22:28:29.867Z,80.14
2024-05-09T22:31:01.048Z,80.15
2024-05-09T22:33:35.298Z,79.72
2024-05-09T22:36:06.927Z,79.82
2024-05-09T22:38:38.220Z,79.50
2024-05-09T22:41:09.480Z,79.01
2024-05-09T22:43:40.603Z,79.35
2024-05-09T22:46:11.493Z,79.14
2024-05-09T22:48:45.631Z,79.36
2024-05-09T22:51:16.521Z,80.02
2024-05-09T22:53:47.420Z,79.96
2024-05-09T22:56:29.002Z,80.22
2024-05-09T22:59:00.518Z,80.11
2024-05-09T23:01:32.108Z,80.42
2024-05-09T23:04:07.099Z,80.38
2024-05-09T23:06:41.918Z,79.53
2024-05-09T23:09:13.782Z,79.32
2024-05-09T23:11:46.766Z,79.63
2024-05-09T23:14:18.294Z,79.67
2024-05-09T23:16:49.816Z,79.61
2024-05-09T23:19:24.527Z,79.69
2024-05-09T23:21:56.263Z,79.27
2024-05-09T23:24:27.808Z,79.22
2024-05-09T23:26:59.732Z,79.44
2024-05-09T23:29:31.261Z,79.32
2024-05-09T23:32:03.166Z,79.55
2024-05-09T23:34:38.015Z,79.14
2024-05-09T23:37:12.412Z,78.91
2024-05-09T23:39:44.104Z,79.07
2024-05-09T23:42:15.855Z,79.04
2024-05-09T23:44:47.497Z,78.57
2024-05-09T23:47:21.549Z,78.19
2024-05-09T23:49:56.287Z,78.18
2024-05-09T23:52:27.876Z,77.67
2024-05-09T23:54:59.677Z,77.52
2024-05-09T23:57:30.783Z,75.94
